createdAt,value
2018-06-02T00:05:33.186Z,20.38
2018-06-02T00:11:37.575Z,20.47
2018-06-02T00:17:41.885Z,20.52
2018-06-02T00:23:47.028Z,20.60
2018-06-02T00:29:51.381Z,20.51
2018-06-02T00:35:56.498Z,20.74
2018-06-02T00:42:00.885Z,20.60
2018-06-02T00:48:05.558Z,20.54
2018-06-02T00:54:09.884Z,20.54
2018-06-02T01:00:14.233Z,20.59
2018-06-02T01:06:18.653Z,20.42
2018-06-02T01:12:23.137Z,20.51
2018-06-02T01:18:28.245Z,20.57
2018-06-02T01:24:32.626Z,20.28
2018-06-02T01:30:36.991Z,20.38
2018-06-02T01:36:41.344Z,20.31
2018-06-02T01:42:46.453Z,20.26
2018-06-02T01:48:50.797Z,20.11
2018-06-02T01:54:55.156Z,20.07
2018-06-02T02:00:59.509Z,20.03
2018-06-02T02:07:03.875Z,19.70
2018-06-02T02:13:08.237Z,19.74
2018-06-02T02:19:12.603Z,19.76
2018-06-02T02:25:17.285Z,19.68
2018-06-02T02:31:22.409Z,19.59
2018-06-02T02:37:26.788Z,19.63
2018-06-02T02:43:31.166Z,19.59
2018-06-02T02:49:35.534Z,19.67
2018-06-02T02:55:39.894Z,19.56
2018-06-02T03:01:44.247Z,19.59
2018-06-02T03:07:48.631Z,19.51
2018-06-02T03:13:53.852Z,19.40
2018-06-02T03:19:58.268Z,19.42
2018-06-02T03:26:02.562Z,19.30
2018-06-02T03:32:07.704Z,19.50
2018-06-02T03:38:12.061Z,19.39
2018-06-02T03:44:16.431Z,19.41
2018-06-02T03:50:20.921Z,19.32
2018-06-02T03:56:25.310Z,19.50
2018-06-02T04:02:29.658Z,19.44
2018-06-02T04:08:34.064Z,19.25
2018-06-02T04:14:38.435Z,19.41
2018-06-02T04:20:42.785Z,19.48
2018-06-02T04:26:47.139Z,19.36
2018-06-02T04:32:51.565Z,19.12
2018-06-02T04:38:56.091Z,19.07
2018-06-02T04:45:00.446Z,19.07
2018-06-02T04:51:05.566Z,18.96
2018-06-02T04:57:09.920Z,18.91
2018-06-02T05:03:14.644Z,18.83
2018-06-02T05:09:19.005Z,18.90
2018-06-02T05:15:23.700Z,19.03
2018-06-02T05:21:28.132Z,19.00
2018-06-02T05:27:33.252Z,18.96
2018-06-02T05:33:37.603Z,18.84
2018-06-02T05:39:41.979Z,19.00
2018-06-02T05:45:47.144Z,19.03
2018-06-02T05:51:53.291Z,18.89
2018-06-02T05:57:58.412Z,18.68
2018-06-02T06:04:02.769Z,18.64
2018-06-02T06:10:07.577Z,18.55
2018-06-02T06:16:12.063Z,18.53
2018-06-02T06:22:16.423Z,18.56
2018-06-02T06:28:21.521Z,18.64
2018-06-02T06:34:26.099Z,18.68
2018-06-02T06:40:30.443Z,18.63
2018-06-02T06:46:34.893Z,18.92
2018-06-02T06:52:39.260Z,18.97
2018-06-02T06:58:43.704Z,19.21
2018-06-02T07:04:48.057Z,19.07
2018-06-02T07:10:52.496Z,19.13
2018-06-02T07:16:57.628Z,18.91
2018-06-02T07:23:02.144Z,18.89
2018-06-02T07:29:06.514Z,18.91
2018-06-02T07:35:10.877Z,18.94
2018-06-02T07:41:15.232Z,19.05
2018-06-02T07:47:19.724Z,19.01
2018-06-02T07:53:25.008Z,19.06
2018-06-02T07:59:29.376Z,19.09
2018-06-02T08:05:33.783Z,19.11
2018-06-02T08:11:38.170Z,19.16
2018-06-02T08:17:42.527Z,19.26
2018-06-02T08:23:46.897Z,19.03
2018-06-02T08:29:51.516Z,19.18
2018-06-02T08:35:55.969Z,18.97
2018-06-02T08:42:00.339Z,19.20
2018-06-02T08:48:04.947Z,19.34
2018-06-02T08:54:09.490Z,19.75
2018-06-02T09:00:13.873Z,19.87
2018-06-02T09:06:18.379Z,19.68
2018-06-02T09:12:23.873Z,19.34
2018-06-02T09:18:28.276Z,19.42
2018-06-02T09:24:32.690Z,19.84
2018-06-02T09:30:37.145Z,19.93
2018-06-02T09:36:42.263Z,20.26
2018-06-02T09:42:46.618Z,20.48
2018-06-02T09:48:51.635Z,20.71
2018-06-02T09:54:56.361Z,20.86
2018-06-02T10:01:01.455Z,21.12
2018-06-02T10:07:05.881Z,21.26
2018-06-02T10:13:10.265Z,21.49
2018-06-02T10:19:14.609Z,21.97
2018-06-02T10:25:19.177Z,22.19
2018-06-02T10:31:23.857Z,22.46
2018-06-02T10:37:29.021Z,22.22
2018-06-02T10:43:33.370Z,22.41
2018-06-02T10:49:37.736Z,22.11
2018-06-02T10:55:42.083Z,21.76
2018-06-02T11:01:46.497Z,22.10
2018-06-02T11:07:51.744Z,22.40
2018-06-02T11:13:56.190Z,22.71
2018-06-02T11:20:00.538Z,22.37
2018-06-02T11:26:04.906Z,21.78
2018-06-02T11:32:09.261Z,21.48
2018-06-02T11:38:13.608Z,21.52
2018-06-02T11:44:18.770Z,21.83
2018-06-02T11:50:23.256Z,22.11
2018-06-02T11:56:27.637Z,21.89
2018-06-02T12:02:31.997Z,21.73
2018-06-02T12:08:36.379Z,21.99
2018-06-02T12:14:40.737Z,21.99
2018-06-02T12:20:45.107Z,21.61
2018-06-02T12:26:50.259Z,21.63
2018-06-02T12:32:54.670Z,21.78
2018-06-02T12:38:59.103Z,21.84
2018-06-02T12:45:04.353Z,22.18
2018-06-02T12:51:08.714Z,22.59
2018-06-02T12:57:13.074Z,23.26
2018-06-02T13:03:17.429Z,23.32
2018-06-02T13:09:21.835Z,23.41
2018-06-02T13:15:27.870Z,23.17
2018-06-02T13:21:32.242Z,22.72
2018-06-02T13:27:36.612Z,22.76
2018-06-02T13:33:40.992Z,22.62
2018-06-02T13:39:45.349Z,22.55
2018-06-02T13:45:49.704Z,22.22
2018-06-02T13:51:54.829Z,22.47
2018-06-02T13:57:59.200Z,23.49
2018-06-02T14:04:03.554Z,24.22
2018-06-02T14:10:07.909Z,24.32
2018-06-02T14:16:13.035Z,24.27
2018-06-02T14:22:17.384Z,25.72
2018-06-02T14:28:22.013Z,25.51
2018-06-02T14:34:26.579Z,24.60
2018-06-02T14:40:30.925Z,25.00
2018-06-02T14:46:35.278Z,24.61
2018-06-02T14:52:39.656Z,23.97
2018-06-02T14:58:44.041Z,24.34
2018-06-02T15:04:48.462Z,26.66
2018-06-02T15:10:53.310Z,27.79
2018-06-02T15:16:57.673Z,28.10
2018-06-02T15:23:02.080Z,27.86
2018-06-02T15:29:06.438Z,27.54
2018-06-02T15:35:10.748Z,26.53
2018-06-02T15:41:15.912Z,26.13
2018-06-02T15:47:20.309Z,26.13
2018-06-02T15:53:24.950Z,25.54
2018-06-02T15:59:29.272Z,26.61
2018-06-02T16:05:34.432Z,26.87
2018-06-02T16:11:38.887Z,26.98
2018-06-02T16:17:44.117Z,27.88
2018-06-02T16:23:48.465Z,27.55
2018-06-02T16:29:53.337Z,28.72
2018-06-02T16:35:58.462Z,28.40
2018-06-02T16:42:02.816Z,28.64
2018-06-02T16:48:07.173Z,27.09
2018-06-02T16:54:12.346Z,25.63
2018-06-02T17:00:17.468Z,24.66
2018-06-02T17:06:22.589Z,24.20
2018-06-02T17:12:26.980Z,24.03
2018-06-02T17:18:31.372Z,24.59
2018-06-02T17:24:35.724Z,24.87
2018-06-02T17:30:40.069Z,25.27
2018-06-02T17:36:44.408Z,26.67
2018-06-02T17:42:48.934Z,27.38
2018-06-02T17:48:53.710Z,26.47
2018-06-02T17:54:58.024Z,26.47
2018-06-02T18:01:03.252Z,27.08
2018-06-02T18:07:08.416Z,27.42
2018-06-02T18:13:12.764Z,27.26
2018-06-02T18:19:17.131Z,26.95
2018-06-02T18:25:23.098Z,26.86
2018-06-02T18:31:27.518Z,26.43
2018-06-02T18:37:31.966Z,26.24
2018-06-02T18:43:37.082Z,25.91
2018-06-02T18:49:41.464Z,24.76
2018-06-02T18:55:45.828Z,23.79
2018-06-02T19:01:50.915Z,23.03
2018-06-02T19:07:55.347Z,22.50
2018-06-02T19:13:59.703Z,21.91
2018-06-02T19:20:04.097Z,21.09
2018-06-02T19:26:08.459Z,20.93
2018-06-02T19:32:12.805Z,20.25
2018-06-02T19:38:17.150Z,19.96
2018-06-02T19:44:21.514Z,19.54
2018-06-02T19:50:25.847Z,19.39
2018-06-02T19:56:30.301Z,19.06
2018-06-02T20:02:34.647Z,18.91
2018-06-02T20:08:39.771Z,18.89
2018-06-02T20:14:44.128Z,18.69
2018-06-02T20:20:48.479Z,18.53
2018-06-02T20:26:54.377Z,18.44
2018-06-02T20:32:58.720Z,18.19
2018-06-02T20:39:03.085Z,18.06
2018-06-02T20:45:07.485Z,18.24
2018-06-02T20:51:11.856Z,17.87
2018-06-02T20:57:16.209Z,18.01
2018-06-02T21:03:20.693Z,18.03
2018-06-02T21:09:25.092Z,17.81
2018-06-02T21:15:29.445Z,17.65
2018-06-02T21:21:33.815Z,17.69
2018-06-02T21:27:38.132Z,17.70
2018-06-02T21:33:42.525Z,17.83
2018-06-02T21:39:47.631Z,17.49
2018-06-02T21:45:51.997Z,17.42
2018-06-02T21:51:56.368Z,17.32
2018-06-02T21:58:01.526Z,17.11
2018-06-02T22:04:05.877Z,17.19
2018-06-02T22:10:10.224Z,17.42
2018-06-02T22:16:14.581Z,17.00
2018-06-02T22:22:19.931Z,17.06
2018-06-02T22:28:24.291Z,17.03
2018-06-02T22:34:28.668Z,16.95
2018-06-02T22:40:33.034Z,16.97
2018-06-02T22:46:37.427Z,16.92
2018-06-02T22:52:41.787Z,16.83
2018-06-02T22:58:46.145Z,16.78
2018-06-02T23:04:50.821Z,16.82
2018-06-02T23:10:55.104Z,16.73
2018-06-02T23:16:59.285Z,16.77
2018-06-02T23:23:03.332Z,16.91
2018-06-02T23:29:08.134Z,16.74
2018-06-02T23:35:12.185Z,16.71
2018-06-02T23:41:16.978Z,16.58
2018-06-02T23:47:21.006Z,16.46
2018-06-02T23:53:25.216Z,16.60
2018-06-02T23:59:29.286Z,16.57
